Time;durP1;ratioP1;P1;durP2;ratioP2;P2;SDS_P1;SDS_P2;PMS_P1;PMS_P2;Temp;Humidity;BMP_temperature;BMP_pressure;BME280_temperature;BME280_humidity;BME280_pressure;Samples;Min_cycle;Max_cycle;Signal;HPM_P1;HPM_P2
2024/02/24 00:01:32;;;;;;;13.48;4.35;;;2.30;99.90;;;1.49;100.00;99204.78;4151292;28;20405;-72
2024/02/24 00:03:33;;;;;;;8.63;3.22;;;2.40;99.90;;;1.56;100.00;99211.03;4152348;28;20398;-72
2024/02/24 00:05:34;;;;;;;5.88;2.42;;;2.40;99.90;;;1.61;100.00;99217.47;4152550;28;20486;-72
2024/02/24 00:07:35;;;;;;;9.60;2.70;;;2.50;99.90;;;1.63;100.00;99215.56;4154071;28;20025;-72
2024/02/24 00:09:35;;;;;;;7.57;2.47;;;2.40;99.90;;;1.67;100.00;99213.53;4156224;28;20096;-72
2024/02/24 00:11:36;;;;;;;7.20;2.85;;;2.50;99.90;;;1.75;100.00;99218.03;4152196;28;20080;-72
2024/02/24 00:13:37;;;;;;;10.25;3.10;;;2.60;99.90;;;1.78;100.00;99205.59;4152229;28;20033;-72
2024/02/24 00:15:38;;;;;;;7.68;2.60;;;2.70;99.90;;;1.83;100.00;99221.56;4151165;28;20022;-72
2024/02/24 00:17:39;;;;;;;10.38;4.10;;;2.70;99.90;;;1.90;100.00;99224.47;4154347;28;20410;-72
2024/02/24 00:19:40;;;;;;;10.68;5.03;;;2.70;99.90;;;1.96;100.00;99224.72;4154435;28;20060;-72
2024/02/24 00:21:41;;;;;;;13.23;5.47;;;2.80;99.90;;;2.05;100.00;99226.50;4152421;28;20374;-72
2024/02/24 00:23:41;;;;;;;11.18;4.57;;;2.90;99.90;;;2.10;100.00;99232.09;4159843;28;20037;-72
2024/02/24 00:25:42;;;;;;;8.73;3.42;;;2.90;99.90;;;2.12;100.00;99224.97;4168583;28;20048;-72
2024/02/24 00:27:43;;;;;;;12.43;6.28;;;2.90;99.90;;;2.16;100.00;99231.53;4167061;28;20139;-72
2024/02/24 00:29:44;;;;;;;14.60;5.55;;;3.00;99.90;;;2.18;100.00;99232.22;4168828;28;20030;-72
2024/02/24 00:31:45;;;;;;;14.20;4.38;;;3.00;99.90;;;2.18;100.00;99234.00;4168509;28;20033;-72
2024/02/24 00:33:46;;;;;;;15.25;4.40;;;3.00;99.90;;;2.21;100.00;99237.13;4168480;28;20033;-72
2024/02/24 00:35:46;;;;;;;11.20;4.05;;;3.00;99.90;;;2.24;100.00;99233.41;4167329;28;20076;-72
2024/02/24 00:37:48;;;;;;;8.13;3.20;;;3.10;99.90;;;2.22;100.00;99236.19;4166221;28;20025;-72
2024/02/24 00:39:48;;;;;;;11.00;3.65;;;3.00;99.90;;;2.21;100.00;99231.94;4166592;28;20090;-72
2024/02/24 00:41:52;;;;;;;13.55;4.30;;;3.10;99.90;;;2.20;100.00;99234.69;4168344;28;20030;-72
2024/02/24 00:43:53;;;;;;;10.67;4.60;;;3.10;99.90;;;2.21;100.00;99231.13;4167317;28;20022;-72
2024/02/24 00:45:53;;;;;;;14.38;5.20;;;3.10;99.90;;;2.20;100.00;99232.09;4165533;28;20034;-72
2024/02/24 00:47:54;;;;;;;17.73;6.95;;;3.10;99.90;;;2.22;100.00;99222.34;4154282;28;20095;-72
2024/02/24 00:49:55;;;;;;;10.60;4.80;;;3.10;99.90;;;2.21;100.00;99229.31;4157977;28;20029;-72
2024/02/24 00:51:56;;;;;;;12.70;5.18;;;3.10;99.90;;;2.18;100.00;99226.22;4163263;28;20034;-72
2024/02/24 00:53:57;;;;;;;22.00;8.43;;;3.10;99.90;;;2.19;100.00;99225.22;4152533;28;20037;-72
2024/02/24 00:55:57;;;;;;;15.60;6.47;;;3.10;99.90;;;2.21;100.00;99231.94;4150865;28;20026;-72
2024/02/24 00:57:58;;;;;;;12.38;5.35;;;3.10;99.90;;;2.20;100.00;99227.69;4155859;28;20022;-72
2024/02/24 00:59:59;;;;;;;11.02;4.80;;;3.10;99.90;;;2.20;100.00;99230.31;4167182;28;20029;-72
2024/02/24 01:02:00;;;;;;;20.42;6.75;;;3.10;99.90;;;2.21;100.00;99238.94;4168167;28;20451;-72
2024/02/24 01:04:01;;;;;;;17.02;7.05;;;3.00;99.90;;;2.19;100.00;99241.66;4168374;28;20037;-72
2024/02/24 01:06:02;;;;;;;20.15;7.07;;;3.00;99.90;;;2.16;100.00;99241.94;4167354;28;20033;-72
2024/02/24 01:08:03;;;;;;;14.38;4.45;;;3.00;99.90;;;2.16;100.00;99246.31;4183570;28;20054;-72
2024/02/24 01:10:05;;;;;;;9.05;3.75;;;3.00;99.90;;;2.16;100.00;99252.34;4150567;28;20025;-72
2024/02/24 01:12:06;;;;;;;10.43;3.80;;;3.00;99.90;;;2.14;100.00;99258.66;4155523;28;20499;-72
2024/02/24 01:14:07;;;;;;;12.13;4.90;;;3.00;99.90;;;2.16;100.00;99273.16;4150905;28;20509;-72
2024/02/24 01:16:08;;;;;;;12.35;3.95;;;3.00;99.90;;;2.14;100.00;99271.66;4151923;28;20036;-72
2024/02/24 01:18:09;;;;;;;11.23;3.35;;;3.00;99.90;;;2.11;100.00;99277.13;4154534;28;20077;-72
2024/02/24 01:20:10;;;;;;;17.00;4.30;;;2.90;99.90;;;2.06;100.00;99280.13;4152260;28;20034;-72
2024/02/24 01:22:13;;;;;;;12.15;4.35;;;2.90;99.90;;;2.00;100.00;99274.69;4154048;28;20121;-72
2024/02/24 01:24:14;;;;;;;9.65;3.92;;;2.90;99.90;;;1.97;100.00;99269.75;4167086;28;20037;-72
2024/02/24 01:26:15;;;;;;;15.30;4.85;;;2.80;99.90;;;1.96;100.00;99281.09;4171085;28;20400;-72
2024/02/24 01:28:17;;;;;;;10.30;2.92;;;2.80;99.90;;;1.94;100.00;99275.22;4165177;28;20033;-72
2024/02/24 01:30:18;;;;;;;8.15;3.15;;;2.80;99.90;;;1.95;100.00;99285.47;4154861;28;20033;-72
2024/02/24 01:32:19;;;;;;;7.55;3.08;;;2.80;99.90;;;1.93;100.00;99282.22;4153409;28;20047;-72
2024/02/24 01:34:20;;;;;;;9.85;3.55;;;2.80;99.90;;;1.92;100.00;99296.16;4169768;28;20017;-72
2024/02/24 01:36:21;;;;;;;10.65;3.80;;;2.70;99.90;;;1.89;100.00;99296.44;4153652;28;20022;-72
2024/02/24 01:38:21;;;;;;;9.77;3.15;;;2.70;99.90;;;1.89;100.00;99288.63;4159917;28;20032;-72
2024/02/24 01:40:22;;;;;;;10.35;3.92;;;2.70;99.90;;;1.89;100.00;99290.41;4166134;28;20504;-72
2024/02/24 01:42:23;;;;;;;11.27;3.33;;;2.70;99.90;;;1.85;100.00;99297.66;4169442;28;20026;-72
2024/02/24 01:44:24;;;;;;;9.07;3.33;;;2.70;99.90;;;1.86;100.00;99293.28;4171068;28;20060;-72
2024/02/24 01:46:25;;;;;;;8.82;3.20;;;2.70;99.90;;;1.84;100.00;99300.41;4162915;28;20405;-72
2024/02/24 01:48:26;;;;;;;15.25;3.47;;;2.70;99.90;;;1.83;100.00;99303.94;4161201;28;20057;-72
2024/02/24 01:50:27;;;;;;;7.47;3.80;;;2.70;99.90;;;1.82;100.00;99297.94;4154960;28;20034;-72
2024/02/24 01:52:29;;;;;;;7.22;2.55;;;2.60;99.90;;;1.84;100.00;99301.22;4154490;28;20543;-72
2024/02/24 01:54:31;;;;;;;6.93;2.85;;;2.70;99.90;;;1.88;100.00;99307.78;4153343;28;20378;-72
2024/02/24 01:56:33;;;;;;;10.55;3.97;;;2.70;99.90;;;1.87;100.00;99313.94;4154477;28;20057;-72
2024/02/24 01:58:38;;;;;;;7.82;3.58;;;2.70;99.90;;;1.89;100.00;99304.22;4160729;28;20029;-72
2024/02/24 02:00:40;;;;;;;9.32;3.42;;;2.70;99.90;;;1.85;100.00;99295.03;4169612;28;20516;-72
2024/02/24 02:02:41;;;;;;;26.77;12.13;;;2.80;99.90;;;1.87;100.00;99298.34;4169462;28;20037;-72
2024/02/24 02:04:42;;;;;;;38.33;16.10;;;2.80;99.90;;;1.85;100.00;99292.44;4169466;28;20542;-72
2024/02/24 02:06:43;;;;;;;72.38;26.30;;;2.70;99.90;;;1.87;100.00;99295.75;4170443;28;20032;-72
2024/02/24 02:08:44;;;;;;;151.35;58.95;;;2.80;99.90;;;1.88;100.00;99299.97;4165799;28;20026;-72
2024/02/24 02:10:55;;;;;;;113.90;43.17;;;2.80;99.90;;;1.86;100.00;99299.28;4154084;28;20034;-72
2024/02/24 02:12:56;;;;;;;106.28;39.30;;;2.80;99.90;;;1.86;100.00;99314.06;4153756;28;20064;-72
2024/02/24 02:14:57;;;;;;;49.33;22.60;;;2.80;99.90;;;1.86;100.00;99322.69;4153891;28;20025;-72
2024/02/24 02:16:57;;;;;;;48.08;19.20;;;2.80;99.90;;;1.80;100.00;99318.03;4154042;28;20048;-72
2024/02/24 02:18:58;;;;;;;34.22;13.10;;;2.70;99.90;;;1.75;100.00;99322.81;4156274;28;20022;-72
2024/02/24 02:21:00;;;;;;;15.20;6.70;;;2.70;99.90;;;1.66;100.00;99313.25;4153919;28;20026;-72
2024/02/24 02:23:01;;;;;;;14.38;6.30;;;2.60;99.90;;;1.61;100.00;99320.63;4155825;28;20029;-72
2024/02/24 02:25:02;;;;;;;11.60;4.22;;;2.50;99.90;;;1.54;100.00;99319.50;4170157;28;20036;-72
2024/02/24 02:27:06;;;;;;;10.77;4.85;;;2.50;99.90;;;1.52;100.00;99313.63;4168861;28;20451;-72
2024/02/24 02:29:07;;;;;;;51.10;20.40;;;2.40;99.90;;;1.59;100.00;99317.31;4170154;28;20032;-72
2024/02/24 02:31:08;;;;;;;41.67;19.38;;;2.50;99.90;;;1.68;100.00;99319.13;4153334;28;20485;-72
2024/02/24 02:33:09;;;;;;;14.55;6.80;;;2.50;99.90;;;1.76;100.00;99323.66;4168301;28;20028;-72
2024/02/24 02:35:10;;;;;;;9.50;4.60;;;2.60;99.90;;;1.77;100.00;99315.72;4161262;28;20021;-72
2024/02/24 02:37:11;;;;;;;8.63;3.33;;;2.70;99.90;;;1.82;100.00;99315.31;4152418;28;20026;-72
2024/02/24 02:39:12;;;;;;;10.90;4.60;;;2.70;99.90;;;1.91;100.00;99323.09;4162807;28;20026;-72
2024/02/24 02:41:13;;;;;;;8.15;2.83;;;2.80;99.90;;;1.88;100.00;99320.78;4153667;28;20104;-72
2024/02/24 02:43:14;;;;;;;8.88;2.47;;;2.80;99.90;;;1.85;100.00;99313.25;4152246;28;20034;-72
2024/02/24 02:45:15;;;;;;;5.50;2.20;;;2.80;99.90;;;1.88;100.00;99320.78;4157503;28;20075;-72
2024/02/24 02:47:15;;;;;;;5.32;1.50;;;2.80;99.90;;;1.87;100.00;99316.56;4156956;28;20038;-72
2024/02/24 02:49:18;;;;;;;6.53;2.17;;;2.80;99.90;;;1.83;100.00;99307.38;4161364;28;20057;-72
2024/02/24 02:51:18;;;;;;;10.52;2.28;;;2.80;99.90;;;1.87;100.00;99316.56;4152317;28;20544;-72
2024/02/24 02:53:19;;;;;;;7.38;2.85;;;2.80;99.90;;;1.89;100.00;99311.19;4152202;28;20022;-72
2024/02/24 02:55:20;;;;;;;10.20;3.92;;;2.80;99.90;;;1.92;100.00;99311.75;4153284;28;20022;-72
2024/02/24 02:57:23;;;;;;;9.75;3.92;;;2.80;99.90;;;1.88;100.00;99307.78;4152044;28;20599;-72
2024/02/24 02:59:24;;;;;;;5.57;2.60;;;2.80;99.90;;;1.94;100.00;99317.63;4159441;28;20025;-72
2024/02/24 03:01:25;;;;;;;10.50;3.17;;;2.80;99.90;;;1.98;100.00;99321.63;4157923;28;20026;-72
2024/02/24 03:03:26;;;;;;;11.25;3.47;;;2.90;99.90;;;1.97;100.00;99325.16;4153120;28;20038;-72
2024/02/24 03:05:28;;;;;;;6.68;2.20;;;2.90;99.90;;;1.99;100.00;99333.66;4153285;28;20490;-72
2024/02/24 03:07:29;;;;;;;7.00;2.40;;;2.90;99.90;;;1.96;100.00;99330.50;4152087;28;20034;-72
2024/02/24 03:09:30;;;;;;;10.68;3.25;;;2.90;99.90;;;1.97;100.00;99329.56;4154766;28;20037;-72
2024/02/24 03:11:30;;;;;;;8.93;3.90;;;2.90;99.90;;;1.98;100.00;99336.38;4167937;28;20091;-72
2024/02/24 03:13:31;;;;;;;11.65;4.63;;;2.80;99.90;;;1.95;100.00;99337.47;4153053;28;20025;-72
2024/02/24 03:15:32;;;;;;;9.20;4.45;;;2.80;99.90;;;1.95;100.00;99347.88;4151858;28;20033;-72
2024/02/24 03:17:33;;;;;;;7.57;3.55;;;2.80;99.90;;;1.90;100.00;99337.09;4153074;28;20018;-72
2024/02/24 03:19:34;;;;;;;9.63;4.53;;;2.80;99.90;;;1.93;100.00;99341.19;4153495;28;20495;-72
2024/02/24 03:21:35;;;;;;;9.70;3.25;;;2.80;99.90;;;1.91;100.00;99343.91;4153022;28;20485;-72
2024/02/24 03:23:36;;;;;;;6.63;2.67;;;2.80;99.90;;;1.93;100.00;99346.38;4175171;28;20098;-72
2024/02/24 03:25:37;;;;;;;6.68;2.80;;;2.80;99.90;;;1.95;100.00;99350.50;4169399;28;20022;-72
2024/02/24 03:27:38;;;;;;;7.15;2.20;;;2.80;99.90;;;1.93;100.00;99349.81;4168692;28;20029;-72
2024/02/24 03:29:39;;;;;;;8.45;3.05;;;2.80;99.90;;;1.89;100.00;99353.63;4165779;28;20033;-72
2024/02/24 03:31:40;;;;;;;4.63;2.08;;;2.80;99.90;;;1.91;100.00;99350.91;4151682;28;20065;-72
2024/02/24 03:33:41;;;;;;;8.63;3.83;;;2.80;99.90;;;1.89;100.00;99352.81;4152930;28;20014;-72
2024/02/24 03:35:42;;;;;;;7.25;2.30;;;2.80;99.90;;;1.87;100.00;99357.31;4164644;28;20130;-72
2024/02/24 03:37:43;;;;;;;6.65;3.05;;;2.70;99.90;;;1.84;100.00;99366.22;4152920;28;20018;-72
2024/02/24 03:39:44;;;;;;;9.45;2.75;;;2.70;99.90;;;1.83;100.00;99363.75;4162253;28;20029;-72
2024/02/24 03:41:45;;;;;;;8.30;2.78;;;2.70;99.90;;;1.81;100.00;99360.47;4151247;28;20022;-72
2024/02/24 03:43:46;;;;;;;9.63;3.58;;;2.70;99.90;;;1.79;100.00;99376.22;4164403;28;20025;-72
2024/02/24 03:45:47;;;;;;;7.78;2.78;;;2.60;99.90;;;1.75;100.00;99366.19;4157273;28;20026;-72
2024/02/24 03:47:48;;;;;;;8.88;3.55;;;2.60;99.90;;;1.67;100.00;99366.88;4152672;28;20029;-72
2024/02/24 03:49:48;;;;;;;10.63;4.00;;;2.60;99.90;;;1.65;100.00;99371.38;4159571;28;20042;-72
2024/02/24 03:51:49;;;;;;;23.13;10.95;;;2.50;99.90;;;1.55;100.00;99365.34;4152516;28;20037;-72
2024/02/24 03:53:50;;;;;;;21.90;8.35;;;2.40;99.90;;;1.51;100.00;99375.16;4151326;28;20029;-72
2024/02/24 03:55:51;;;;;;;11.77;4.97;;;2.40;99.90;;;1.40;100.00;99369.25;4152884;28;20037;-72
2024/02/24 03:57:52;;;;;;;11.55;4.78;;;2.30;99.90;;;1.34;100.00;99357.63;4151738;28;20465;-72
2024/02/24 03:59:54;;;;;;;15.25;8.52;;;2.30;99.90;;;1.32;100.00;99356.06;4155924;28;20032;-72
2024/02/24 04:01:55;;;;;;;17.75;8.13;;;2.20;99.90;;;1.31;100.00;99364.84;4152523;28;20029;-72
2024/02/24 04:03:56;;;;;;;10.43;5.57;;;2.20;99.90;;;1.32;100.00;99356.91;4152560;28;20030;-72
2024/02/24 04:05:57;;;;;;;12.98;4.53;;;2.20;99.90;;;1.42;100.00;99373.34;4152513;28;20037;-72
2024/02/24 04:07:58;;;;;;;8.02;3.80;;;2.30;99.90;;;1.47;100.00;99372.94;4152269;28;20030;-72
2024/02/24 04:09:59;;;;;;;9.45;4.43;;;2.30;99.90;;;1.50;100.00;99372.69;4152637;28;20033;-72
2024/02/24 04:11:59;;;;;;;13.98;4.40;;;2.40;99.90;;;1.57;100.00;99385.03;4152200;28;20030;-72
2024/02/24 04:14:00;;;;;;;10.63;3.63;;;2.40;99.90;;;1.60;100.00;99376.16;4152404;28;20033;-72
2024/02/24 04:16:01;;;;;;;7.97;3.58;;;2.50;99.90;;;1.66;100.00;99381.63;4152401;28;20113;-72
2024/02/24 04:18:03;;;;;;;5.95;2.40;;;2.50;99.90;;;1.70;100.00;99384.81;4152585;28;20080;-72
2024/02/24 04:20:05;;;;;;;6.60;2.17;;;2.50;99.90;;;1.68;100.00;99392.72;4152466;28;20556;-72
2024/02/24 04:22:06;;;;;;;8.30;2.05;;;2.50;99.90;;;1.70;100.00;99378.78;4151123;28;20125;-72
2024/02/24 04:24:07;;;;;;;4.70;1.95;;;2.50;99.90;;;1.70;100.00;99382.19;4163555;28;20512;-72
2024/02/24 04:26:08;;;;;;;4.65;1.75;;;2.50;99.90;;;1.69;100.00;99390.94;4168485;28;20032;-72
2024/02/24 04:28:12;;;;;;;3.47;2.17;;;2.50;99.90;;;1.71;100.00;99391.63;4167404;28;20026;-72
2024/02/24 04:30:13;;;;;;;6.70;2.50;;;2.50;99.90;;;1.70;100.00;99399.56;4160709;28;20501;-72
2024/02/24 04:32:13;;;;;;;8.80;2.55;;;2.50;99.90;;;1.67;100.00;99401.47;4152247;28;20493;-72
2024/02/24 04:34:14;;;;;;;6.22;2.55;;;2.50;99.90;;;1.67;100.00;99401.47;4150804;28;20040;-72
2024/02/24 04:36:15;;;;;;;6.75;2.22;;;2.50;99.90;;;1.66;100.00;99396.41;4152257;28;20041;-72
2024/02/24 04:38:16;;;;;;;7.47;2.38;;;2.50;99.90;;;1.73;100.00;99400.13;4155172;28;20026;-72
2024/02/24 04:40:17;;;;;;;9.57;2.10;;;2.50;99.90;;;1.74;100.00;99401.75;4167351;28;20017;-72
2024/02/24 04:42:18;;;;;;;8.02;2.58;;;2.60;99.90;;;1.75;100.00;99408.63;4168325;28;20072;-72
2024/02/24 04:44:19;;;;;;;6.85;2.78;;;2.60;99.90;;;1.76;100.00;99409.44;4167705;28;20034;-72
2024/02/24 04:46:20;;;;;;;7.65;2.13;;;2.60;99.90;;;1.74;100.00;99396.56;4161273;28;20033;-72
2024/02/24 04:48:21;;;;;;;7.57;3.05;;;2.60;99.90;;;1.72;100.00;99408.88;4155433;28;20388;-72
2024/02/24 04:50:21;;;;;;;5.32;1.67;;;2.60;99.90;;;1.71;100.00;99409.81;4154944;28;20468;-72
2024/02/24 04:52:22;;;;;;;7.40;1.75;;;2.60;99.90;;;1.72;100.00;99414.06;4151109;28;20026;-72
2024/02/24 04:54:24;;;;;;;7.40;2.47;;;2.60;99.90;;;1.79;100.00;99420.41;4152171;28;20029;-72
2024/02/24 04:56:25;;;;;;;3.85;1.90;;;2.60;99.90;;;1.79;100.00;99422.16;4168000;28;20022;-72
2024/02/24 04:58:27;;;;;;;3.40;2.03;;;2.60;99.90;;;1.78;100.00;99423.94;4171492;28;20049;-72
2024/02/24 05:00:27;;;;;;;5.72;2.20;;;2.70;99.90;;;1.77;100.00;99429.25;4155334;28;20060;-72
2024/02/24 05:02:28;;;;;;;9.50;2.22;;;2.60;99.90;;;1.80;100.00;99435.03;4163519;28;20030;-72
2024/02/24 05:04:29;;;;;;;6.72;2.25;;;2.70;99.90;;;1.84;100.00;99453.78;4155140;28;20076;-72
2024/02/24 05:06:30;;;;;;;4.43;1.90;;;2.70;99.90;;;1.80;100.00;99442.81;4155064;28;20383;-72
2024/02/24 05:08:33;;;;;;;9.15;2.47;;;2.70;99.90;;;1.79;100.00;99445.56;4158470;28;20044;-72
2024/02/24 05:10:33;;;;;;;4.75;1.60;;;2.70;99.90;;;1.82;100.00;99451.34;4171668;28;20025;-72
2024/02/24 05:12:35;;;;;;;6.45;2.20;;;2.60;99.90;;;1.82;100.00;99456.53;4171069;28;20033;-72
2024/02/24 05:14:39;;;;;;;6.88;1.92;;;2.70;99.90;;;1.88;100.00;99462.97;4169922;28;20101;-72
2024/02/24 05:16:41;;;;;;;3.50;1.73;;;2.70;99.90;;;1.89;100.00;99455.03;4186971;28;20021;-72
2024/02/24 05:18:41;;;;;;;6.32;2.22;;;2.70;99.90;;;1.88;100.00;99458.56;4171332;28;20064;-72
2024/02/24 05:20:42;;;;;;;5.63;1.90;;;2.80;99.90;;;1.91;100.00;99470.50;4169744;28;20017;-72
2024/02/24 05:22:43;;;;;;;4.57;1.80;;;2.80;99.90;;;1.91;100.00;99470.50;4157879;28;20057;-72
2024/02/24 05:24:46;;;;;;;4.55;2.10;;;2.80;99.90;;;1.90;100.00;99464.47;4171031;28;20037;-72
2024/02/24 05:26:46;;;;;;;5.88;2.00;;;2.80;99.90;;;1.90;100.00;99463.66;4169755;28;20033;-72
2024/02/24 05:28:47;;;;;;;7.60;1.85;;;2.80;99.90;;;1.88;100.00;99466.38;4169951;28;20025;-71
2024/02/24 05:30:48;;;;;;;7.05;2.33;;;2.70;99.90;;;1.89;100.00;99457.63;4158298;28;20030;-72
2024/02/24 05:32:49;;;;;;;4.90;1.50;;;2.80;99.90;;;1.90;100.00;99459.28;4154693;28;20041;-72
2024/02/24 05:34:50;;;;;;;5.47;1.60;;;2.80;99.90;;;1.92;100.00;99477.34;4154780;28;20026;-72
2024/02/24 05:36:51;;;;;;;7.78;1.70;;;2.80;99.90;;;1.89;100.00;99468.03;4153541;28;20048;-72
2024/02/24 05:38:51;;;;;;;6.90;1.65;;;2.80;99.90;;;1.87;100.00;99471.72;4161538;28;20029;-72
2024/02/24 05:40:52;;;;;;;3.40;1.70;;;2.80;99.90;;;1.86;100.00;99478.69;4169643;28;20080;-72
2024/02/24 05:42:53;;;;;;;8.05;1.77;;;2.70;99.90;;;1.86;100.00;99483.06;4170794;28;20033;-72
2024/02/24 05:44:54;;;;;;;6.43;1.85;;;2.70;99.90;;;1.89;100.00;99477.59;4169541;28;20441;-72
2024/02/24 05:46:55;;;;;;;4.60;1.80;;;2.70;99.90;;;1.90;100.00;99484.47;4169536;28;20025;-72
2024/02/24 05:48:55;;;;;;;6.03;2.35;;;2.80;99.90;;;1.91;100.00;99492.13;4168808;28;20045;-72
2024/02/24 05:50:56;;;;;;;13.57;2.28;;;2.70;99.90;;;1.97;100.00;99496.78;4154580;28;20030;-72
2024/02/24 05:52:57;;;;;;;7.55;2.17;;;2.80;99.90;;;2.00;100.00;99501.72;4154342;28;20030;-72
2024/02/24 05:54:58;;;;;;;6.78;2.05;;;2.90;99.90;;;2.00;100.00;99500.94;4154409;28;20026;-72
2024/02/24 05:57:02;;;;;;;7.65;1.42;;;2.90;99.90;;;1.99;100.00;99500.09;4154125;28;20021;-72
2024/02/24 05:59:02;;;;;;;6.25;1.50;;;2.90;99.90;;;2.00;100.00;99501.72;4157892;28;20457;-72
2024/02/24 06:01:03;;;;;;;9.43;1.80;;;2.90;99.90;;;2.01;100.00;99510.34;4154363;28;20026;-72
2024/02/24 06:03:07;;;;;;;10.13;1.80;;;2.90;99.90;;;2.01;100.00;99502.56;4169384;28;20037;-72
2024/02/24 06:05:08;;;;;;;8.85;1.20;;;2.90;99.90;;;2.03;100.00;99501.47;4169073;28;20029;-72
2024/02/24 06:07:09;;;;;;;9.75;3.47;;;2.90;99.90;;;2.08;100.00;99498.47;4153972;28;20034;-72
2024/02/24 06:09:10;;;;;;;11.55;1.75;;;2.90;99.90;;;2.13;100.00;99507.53;4161358;28;20022;-72
2024/02/24 06:11:11;;;;;;;7.47;1.50;;;3.00;99.90;;;2.16;100.00;99511.63;4170588;28;20033;-72
2024/02/24 06:13:12;;;;;;;10.13;1.30;;;3.00;99.90;;;2.16;100.00;99498.63;4170005;28;20033;-72
2024/02/24 06:15:13;;;;;;;6.60;1.40;;;3.10;99.90;;;2.24;100.00;99502.22;4169364;28;20112;-72
2024/02/24 06:17:14;;;;;;;9.05;2.28;;;3.10;99.90;;;2.29;100.00;99503.59;4170723;28;20018;-72
2024/02/24 06:19:14;;;;;;;9.50;4.38;;;3.10;99.90;;;2.28;100.00;99501.94;4170334;28;20030;-72
2024/02/24 06:21:15;;;;;;;17.02;5.45;;;3.20;99.90;;;2.27;100.00;99498.50;4169009;28;20021;-72
2024/02/24 06:23:16;;;;;;;18.13;6.68;;;3.20;99.90;;;2.34;100.00;99504.84;4166191;28;20409;-72
2024/02/24 06:25:17;;;;;;;23.58;8.90;;;3.20;99.90;;;2.36;100.00;99510.72;4160274;28;20107;-72
2024/02/24 06:27:18;;;;;;;15.05;5.82;;;3.30;99.90;;;2.36;100.00;99502.91;4152504;28;20076;-72
2024/02/24 06:29:19;;;;;;;17.13;6.05;;;3.20;99.90;;;2.36;100.00;99517.72;4162691;28;20029;-72
2024/02/24 06:31:19;;;;;;;17.55;5.40;;;3.20;99.90;;;2.34;100.00;99510.03;4153902;28;20493;-72
2024/02/24 06:33:20;;;;;;;10.48;3.88;;;3.20;99.90;;;2.41;100.00;99520.75;4152742;28;20030;-72
2024/02/24 06:35:21;;;;;;;7.53;2.03;;;3.30;99.90;;;2.41;100.00;99518.13;4152506;28;20032;-72
2024/02/24 06:37:22;;;;;;;9.60;2.53;;;3.30;99.90;;;2.41;100.00;99510.34;4153618;28;20030;-72
2024/02/24 06:39:23;;;;;;;13.50;1.85;;;3.30;99.90;;;2.43;100.00;99518.81;4160030;28;20037;-72
2024/02/24 06:41:24;;;;;;;7.15;2.15;;;3.30;99.90;;;2.42;100.00;99515.38;4153407;28;20379;-72
2024/02/24 06:43:24;;;;;;;10.52;1.92;;;3.30;99.90;;;2.43;100.00;99511.84;4152408;28;20417;-72
2024/02/24 06:45:25;;;;;;;8.57;2.38;;;3.30;99.90;;;2.46;100.00;99515.94;4158567;28;20079;-72
2024/02/24 06:47:26;;;;;;;5.47;1.52;;;3.30;99.90;;;2.44;100.00;99521.31;4153480;28;20028;-72
2024/02/24 06:49:27;;;;;;;10.82;2.08;;;3.30;99.90;;;2.43;100.00;99513.63;4162928;28;20104;-72
2024/02/24 06:51:28;;;;;;;9.07;2.03;;;3.30;99.90;;;2.50;100.00;99512.97;4185219;28;20091;-72
2024/02/24 06:53:29;;;;;;;5.57;1.98;;;3.40;99.90;;;2.53;100.00;99530.09;4169898;28;20029;-72
2024/02/24 06:55:29;;;;;;;6.95;2.28;;;3.40;99.90;;;2.56;100.00;99519.41;4169911;28;20029;-72
2024/02/24 06:57:30;;;;;;;11.38;2.47;;;3.40;99.90;;;2.61;100.00;99525.84;4169142;28;20033;-72
2024/02/24 06:59:31;;;;;;;8.23;1.67;;;3.50;99.90;;;2.72;100.00;99530.91;4160329;28;20400;-72
2024/02/24 07:01:35;;;;;;;9.20;1.80;;;3.50;99.90;;;2.83;100.00;99536.97;4153882;28;20030;-72
2024/02/24 07:03:37;;;;;;;9.30;1.95;;;3.60;99.90;;;2.86;100.00;99534.91;4153326;28;20038;-72
2024/02/24 07:05:38;;;;;;;10.93;1.40;;;3.70;99.90;;;2.99;100.00;99542.44;4152064;28;20034;-72
2024/02/24 07:07:39;;;;;;;16.00;2.85;;;3.80;99.90;;;3.07;100.00;99538.22;4152291;28;20033;-72
2024/02/24 07:09:39;;;;;;;7.32;1.73;;;3.80;99.90;;;3.12;100.00;99537.78;4165199;28;20048;-72
2024/02/24 07:11:40;;;;;;;7.40;2.17;;;3.90;99.90;;;3.15;100.00;99548.75;4152431;28;20026;-72
2024/02/24 07:13:41;;;;;;;8.25;1.70;;;4.00;99.90;;;3.18;100.00;99550.25;4153122;28;20064;-72
2024/02/24 07:15:42;;;;;;;6.53;2.95;;;4.00;99.90;;;3.18;100.00;99538.06;4151872;28;20059;-72
2024/02/24 07:17:43;;;;;;;12.23;1.60;;;4.00;99.90;;;3.24;100.00;99555.75;4168363;28;20052;-72
2024/02/24 07:19:44;;;;;;;12.90;1.70;;;4.00;99.90;;;3.25;100.00;99549.59;4163095;28;20067;-72
2024/02/24 07:21:45;;;;;;;9.63;2.50;;;4.10;99.90;;;3.27;100.00;99550.25;4151754;28;20020;-72
2024/02/24 07:23:47;;;;;;;5.32;1.70;;;4.10;99.90;;;3.31;100.00;99549.03;4143333;28;20454;-72
2024/02/24 07:25:48;;;;;;;6.38;2.05;;;4.10;99.90;;;3.37;100.00;99545.03;4152937;28;20559;-72
2024/02/24 07:27:49;;;;;;;11.27;3.83;;;4.20;99.90;;;3.41;100.00;99550.75;4152688;28;20033;-72
2024/02/24 07:29:50;;;;;;;10.05;4.03;;;4.20;99.90;;;3.47;100.00;99550.22;4164889;28;20029;-72
2024/02/24 07:31:51;;;;;;;11.30;4.07;;;4.30;99.90;;;3.56;100.00;99551.97;4184522;28;20093;-72
2024/02/24 07:33:51;;;;;;;10.32;4.13;;;4.40;99.90;;;3.66;100.00;99558.00;4169279;28;20028;-72
2024/02/24 07:35:52;;;;;;;14.07;3.88;;;4.40;99.90;;;3.74;100.00;99568.53;4169051;28;20026;-72
2024/02/24 07:37:53;;;;;;;12.95;3.10;;;4.50;99.90;;;3.80;100.00;99563.59;4167972;28;20018;-72
2024/02/24 07:39:54;;;;;;;7.07;2.20;;;4.60;99.90;;;3.86;100.00;99570.03;4160245;28;20039;-72
2024/02/24 07:41:55;;;;;;;10.75;2.35;;;4.60;99.90;;;3.92;100.00;99574.69;4145637;28;20476;-72
2024/02/24 07:43:56;;;;;;;8.85;2.08;;;4.70;99.90;;;3.99;100.00;99574.94;4162862;28;20025;-72
2024/02/24 07:45:56;;;;;;;9.23;2.10;;;4.80;99.90;;;4.01;100.00;99573.81;4160910;28;20036;-72
2024/02/24 07:47:57;;;;;;;12.43;2.28;;;4.80;99.90;;;4.04;100.00;99581.38;4167552;28;20028;-73
2024/02/24 07:49:58;;;;;;;11.32;2.90;;;4.80;99.90;;;4.09;100.00;99573.91;4159023;28;20038;-73
2024/02/24 07:51:59;;;;;;;8.00;3.60;;;4.90;99.90;;;4.12;100.00;99578.84;4152434;28;20037;-72
2024/02/24 07:54:00;;;;;;;10.30;3.40;;;4.90;99.90;;;4.15;100.00;99583.78;4152719;28;20481;-72
2024/02/24 07:56:01;;;;;;;10.13;3.78;;;4.90;99.90;;;4.20;100.00;99585.97;4152792;28;20022;-72
2024/02/24 07:58:02;;;;;;;12.93;4.00;;;4.90;99.90;;;4.20;100.00;99581.59;4151188;28;20050;-73
2024/02/24 08:00:04;;;;;;;10.48;3.33;;;5.00;99.90;;;4.23;100.00;99586.53;4154256;28;20394;-72
2024/02/24 08:02:05;;;;;;;20.05;7.93;;;5.00;99.90;;;4.27;100.00;99590.47;4151506;28;20044;-72
2024/02/24 08:04:06;;;;;;;11.93;5.72;;;5.00;99.90;;;4.29;100.00;99590.34;4152557;28;20486;-72
2024/02/24 08:06:07;;;;;;;10.30;4.38;;;5.10;99.90;;;4.32;100.00;99588.28;4152474;28;20116;-72
2024/02/24 08:08:08;;;;;;;9.10;3.53;;;5.10;99.90;;;4.32;100.00;99572.59;4152364;28;20034;-72
2024/02/24 08:10:09;;;;;;;11.88;5.97;;;5.10;99.90;;;4.40;100.00;99585.75;4164744;28;21431;-72
2024/02/24 08:12:10;;;;;;;8.63;3.45;;;5.20;99.90;;;4.47;100.00;99586.81;4150973;28;20026;-72
2024/02/24 08:14:11;;;;;;;7.53;2.13;;;5.20;99.90;;;4.54;100.00;99586.25;4152452;28;20374;-72
2024/02/24 08:16:12;;;;;;;9.43;2.72;;;5.30;99.90;;;4.61;100.00;99577.66;4152453;28;20021;-72
2024/02/24 08:18:13;;;;;;;11.45;4.35;;;5.40;99.90;;;4.65;100.00;99579.03;4152257;28;20493;-72
2024/02/24 08:20:14;;;;;;;13.40;2.33;;;5.40;99.90;;;4.70;100.00;99589.00;4162138;28;20018;-72
2024/02/24 08:22:15;;;;;;;8.02;2.33;;;5.50;99.90;;;4.78;100.00;99589.13;4152506;28;20033;-72
2024/02/24 08:24:16;;;;;;;7.82;2.67;;;5.50;99.90;;;4.91;100.00;99586.97;4179883;28;20029;-72
2024/02/24 08:26:17;;;;;;;6.15;1.85;;;5.60;99.90;;;4.96;100.00;99575.09;4168406;28;20037;-72
2024/02/24 08:28:18;;;;;;;8.27;2.40;;;5.70;99.90;;;5.06;100.00;99576.81;4168694;28;20440;-72
2024/02/24 08:30:19;;;;;;;9.40;2.45;;;5.80;99.90;;;5.16;100.00;99564.50;4167369;28;20040;-72
2024/02/24 08:32:20;;;;;;;7.80;1.90;;;5.90;99.90;;;5.26;100.00;99568.66;4171240;28;20105;-72